AirNav   Everest Fuels
 
 1120 users online  

6Y0 Moorestown Airpark
Moorestown, Michigan, USA

GOING TO MOORESTOWN?


FAA INFORMATION EFFECTIVE 15 JULY 2021

Location

FAA Identifier: 6Y0
Lat/Long: 44-27-46.7396N 084-59-47.7531W
44-27.778993N 084-59.795885W
44.4629832,-84.9965981
(estimated)
Elevation: 1210 ft. / 369 m (estimated)
Variation: 05W (1985)
From city: 1 mile SE of MOORESTOWN, MI
Time zone: UTC -4 (UTC -5 during Standard Time)
Zip code: 49651

Airport Operations

Airport use: Open to the public
Activation date: 08/1970
Control tower: no
ARTCC: MINNEAPOLIS CENTER
FSS: LANSING FLIGHT SERVICE STATION
NOTAMs facility: LAN (NOTAM-D service available)
Attendance: APR-NOV DAWN-DUSK
Wind indicator: yes
Segmented circle: yes

Airport Communications

CTAF: 122.9
WX ASOS at HTL (15 nm SE): 118.05 (989-366-4825)
WX ASOS at GOV (17 nm NE): PHONE 989-348-3127

Nearby radio navigation aids

VOR radial/distance  VOR name  Freq  Var
CGGr227/(17.4)GRAYLING VOR109.8006W
TVCr119/26.7TRAVERSE CITY VOR/DME114.6002W
GLRr207/35.2GAYLORD VOR/DME109.2006W

 
NDB name  Hdg/Dist  Freq  Var  ID
GRAYLING209/18.735906WGYG --. -.-- --.

Airport Services

Parking: tiedowns
Airframe service: NONE
Powerplant service: NONE
Bottled oxygen: NONE
Bulk oxygen: NONE

Runway Information

Runway 3/21

Dimensions: 2800 x 100 ft. / 853 x 30 m
Surface: turf, in fair condition
Runway edge markings: RWY & DTHR MKD WITH 3 FT YELLOW CONES.
RUNWAY 3  RUNWAY 21
Latitude: 44-27.516500N44-27.932833N
Longitude: 084-59.861167W084-59.586000W
Elevation: 1201.0 ft.1203.0 ft.
Traffic pattern: leftleft
Runway heading: 030 magnetic, 025 true210 magnetic, 205 true
Displaced threshold: 801 ft.991 ft.
Runway end identifier lights: nono
Obstructions: 15 ft. trees, 25 ft. from runway, 125 ft. left of centerline, 1:1 slope to clear
APCH RATIO 20:1 AT DTHR.
15 ft. road, 80 ft. left of centerline
APCH RATIO 17:1 AT DTHR BASED ON STRAIGHT OUT OVR 70 FT TREES, 1210 FT DIST.

Runway 9/27

Dimensions: 2600 x 100 ft. / 792 x 30 m
Surface: turf, in fair condition
Runway edge markings: RWY & DTHR MKD WITH 3 FT YELLOW CONES.
RUNWAY 9  RUNWAY 27
Latitude: 44-27.841667N44-27.833333N
Longitude: 085-00.172500W084-59.575000W
Elevation: 1205.0 ft.1210.0 ft.
Traffic pattern: leftleft
Runway heading: 096 magnetic, 091 true276 magnetic, 271 true
Displaced threshold: 800 ft.1191 ft.
Runway end identifier lights: nono
Obstructions: 26 ft. trees, 110 ft. right of centerline
APCH RATIO 0:1 AT DTHR OVR 40 FT TREES, 0 FT DIST, 90 FT R; 18:1 BASED ON STRAIGHT OUT OVR 96 FT TREES, 1810 FT DIST.
15 ft. road, 34 ft. from runway, 128 ft. left and right of centerline, 2:1 slope to clear
APCH RATIO 30:1 AT DTHR OVR 15 FT ROAD, 463 FT DIST, 172 FT L/R.

Airport Ownership and Management from official FAA records

Ownership: Privately-owned
Owner: LOIS WHIPPLE
4840 E MOORESTOWN RD
LAKE CITY, MI 49651-9739
Phone 231-229-4232
Manager: LOIS WHIPPLE
4840 E MOORESTOWN RD
LAKE CITY, MI 49651-9739
Phone 231-229-4232
EVE 231-224-4443.

Airport Operational Statistics

Aircraft operations: avg 25/month *
50% transient general aviation
50% local general aviation
* for 12-month period ending 31 December 2019

Additional Remarks

NO SNOW REMOVAL, WINTER OPS FOR SKI-EQUIPPED ACFT ONLY.
FOR CD CTC MINNEAPOLIS ARTCC AT 651-463-5588.
LRG BIRDS ON & INVOF ARPT.

Instrument Procedures

There are no published instrument procedures at 6Y0.

Some nearby airports with instrument procedures:

KHTL - Roscommon County - Blodgett Memorial Airport (15 nm SE)
KGOV - Grayling Army Airfield (17 nm NE)
KCAD - Wexford County Airport (21 nm SW)
KTVC - Cherry Capital Airport (30 nm NW)
KACB - Antrim County Airport (33 nm N)
 
Loc | Ops | Rwys | IFR | FBO | Links
Com | Nav | Svcs | Stats | Notes
Area around 6Y0 (Moorestown Airpark)
 
Road maps at: MapQuest Bing Google
 
Aerial photo
No photo
 
Sectional chart

 
Airport distance calculator
Flying to Moorestown Airpark? Find the distance to fly.

From to 6Y0

Sunrise and sunset
Times for 23-Jul-2021
 Local
(UTC-4)
 Zulu
(UTC)
Morning civil twilight05:4409:44
Sunrise06:1810:18
Sunset21:1501:15
Evening civil twilight21:4901:49

Current date and time
Zulu (UTC)  23-Jul-2021 23:33:15
Local (UTC-4)  23-Jul-2021 19:33:15
 
METAR
KHTL 
16nm SE 
232253Z AUTO 17007KT 10SM CLR 25/18 A3006 RMK AO2 SLP175 T02500183
KGOV 
17nm NE 
232258Z AUTO 20007KT 10SM CLR 24/19 A3004 RMK AO2 SLP175 T02440191 $
KCAD 
22nm SW 
232315Z AUTO 17005KT 10SM CLR 24/20 A3004 RMK AO2 T02400199
KTVC 
29nm NW 
232253Z 18005KT 10SM FEW021 FEW037 SCT240 28/20 A2999 RMK AO2 SLP153 T02780200
TAF
KTVC 
29nm NW 
231726Z 2318/2418 23006KT P6SM FEW040 BKN080 OVC110 FM232200 17005KT P6SM VCTS FEW010CB SCT250 FM240000 17005KT P6SM FEW010 SCT250 FM240600 19009KT P6SM VCSH BKN100 FM241300 22009KT 6SM -SHRA BR OVC009
NOTAMs
Click for the latest NOTAMs
NOTAMs are issued by the DoD/FAA and will open in a separate window not controlled by AirNav.

 

 
 

Would you like to see your business listed on this page?

 If your business provides an interesting product or service to pilots, flight crews, aircraft, or users of the Moorestown Airpark, you should consider listing it here.  To start the listing process, click on the button below
 
Add a business
 

Other Pages about Moorestown Airpark

Page from the Michigan Airport Directory (PDF)
 
Update a link
 
Copyright © AirNav, LLC. All rights reserved. Privacy Policy  Contact